Terminal Aerodrome Forecast
Issued by NWS

Home | Current Version | Previous Version | Text Only | Print | Product List | Glossary On
Versions: 1 2 3 4 5 6 7 8 9 10 11 12 13
465
FTUS41 KBTV 241736
TAFSLK
TAF
KSLK 241736Z 2418/2518 23010G19KT P6SM SCT250
     FM250000 20004KT P6SM BKN180
     FM250700 VRB03KT P6SM VCSH SCT040 OVC070
     FM251200 12005KT 5SM -SHRA BR OVC040
     FM251500 16006KT 4SM -RA BR BKN020 OVC035=

USA.gov is the U.S. government's official web portal to all federal, state and local government web resources and services.